createdAt,value
2019-03-12T00:02:17.690Z,24.40
2019-03-12T00:04:47.649Z,24.40
2019-03-12T00:07:17.633Z,24.60
2019-03-12T00:09:47.654Z,24.60
2019-03-12T00:12:17.609Z,24.40
2019-03-12T00:14:47.639Z,24.70
2019-03-12T00:17:17.775Z,24.00
2019-03-12T00:19:47.810Z,23.50
2019-03-12T00:22:17.859Z,23.10
2019-03-12T00:24:47.837Z,22.50
2019-03-12T00:27:17.851Z,21.90
2019-03-12T00:29:47.750Z,22.60
2019-03-12T00:32:17.788Z,22.90
2019-03-12T00:34:47.754Z,22.70
2019-03-12T00:37:17.576Z,22.50
2019-03-12T00:39:47.456Z,22.80
2019-03-12T00:42:17.279Z,22.60
2019-03-12T00:44:47.133Z,22.90
2019-03-12T00:47:17.030Z,22.90
2019-03-12T00:49:46.976Z,23.20
2019-03-12T00:52:16.882Z,23.40
2019-03-12T00:54:46.687Z,23.90
2019-03-12T00:57:16.809Z,24.60
2019-03-12T00:59:46.705Z,24.50
2019-03-12T01:02:16.531Z,24.80
2019-03-12T01:07:34.046Z,25.00
2019-03-12T01:10:03.875Z,25.50
2019-03-12T01:12:33.771Z,25.00
2019-03-12T01:15:04.300Z,26.30
2019-03-12T01:17:34.271Z,27.50
2019-03-12T01:20:07.490Z,30.00
2019-03-12T01:22:37.515Z,31.70
2019-03-12T01:25:09.349Z,33.40
2019-03-12T01:27:39.184Z,33.30
2019-03-12T01:30:12.311Z,34.40
2019-03-12T01:32:42.428Z,33.50
2019-03-12T01:35:12.388Z,33.40
2019-03-12T01:37:42.346Z,33.50
2019-03-12T01:40:16.405Z,33.50
2019-03-12T01:42:47.266Z,34.30
2019-03-12T01:45:17.246Z,34.60
2019-03-12T01:47:47.261Z,35.50
2019-03-12T01:50:17.163Z,35.40
2019-03-12T01:52:47.096Z,36.20
2019-03-12T01:55:17.943Z,35.90
2019-03-12T01:57:47.788Z,36.80
2019-03-12T02:00:18.755Z,37.10
2019-03-12T02:02:48.584Z,37.60
2019-03-12T02:05:18.473Z,38.60
2019-03-12T02:07:48.451Z,38.40
2019-03-12T02:10:18.393Z,38.10
2019-03-12T02:12:48.454Z,37.70
2019-03-12T02:15:18.420Z,37.20
2019-03-12T02:17:48.384Z,37.10
2019-03-12T02:20:19.454Z,37.50
2019-03-12T02:22:49.352Z,37.70
2019-03-12T02:25:19.495Z,36.60
2019-03-12T02:27:49.380Z,36.10
2019-03-12T02:30:20.909Z,35.70
2019-03-12T02:32:50.934Z,35.50
2019-03-12T02:35:20.823Z,36.00
2019-03-12T02:37:50.802Z,36.50
2019-03-12T02:40:20.760Z,37.00
2019-03-12T02:42:50.709Z,37.40
2019-03-12T02:45:20.698Z,37.10
2019-03-12T02:47:50.602Z,37.00
2019-03-12T02:50:20.478Z,37.50
2019-03-12T02:52:50.543Z,37.30
2019-03-12T02:55:20.451Z,37.00
2019-03-12T02:57:50.334Z,38.40
2019-03-12T03:00:23.531Z,38.20
2019-03-12T03:02:53.420Z,38.80
2019-03-12T03:05:23.428Z,39.20
2019-03-12T03:07:55.242Z,39.90
2019-03-12T03:10:25.136Z,39.70
2019-03-12T03:12:55.143Z,40.30
2019-03-12T03:15:30.480Z,41.20
2019-03-12T03:18:00.466Z,42.60
2019-03-12T03:20:30.373Z,43.00
2019-03-12T03:23:00.333Z,45.00
2019-03-12T03:25:30.226Z,46.80
2019-03-12T03:28:00.170Z,46.50
2019-03-12T03:30:30.009Z,47.40
2019-03-12T03:33:00.008Z,48.40
2019-03-12T03:35:30.006Z,49.20
2019-03-12T03:37:59.894Z,50.00
2019-03-12T03:40:29.947Z,50.60
2019-03-12T03:43:00.019Z,51.30
2019-03-12T03:45:30.001Z,52.50
2019-03-12T03:47:59.903Z,53.60
2019-03-12T03:50:29.775Z,54.90
2019-03-12T03:52:59.766Z,55.30
2019-03-12T03:55:29.931Z,56.20
2019-03-12T03:57:59.946Z,55.80
2019-03-12T04:00:30.820Z,56.30
2019-03-12T04:03:00.831Z,56.90
2019-03-12T04:05:30.762Z,57.80
2019-03-12T04:08:00.585Z,57.10
2019-03-12T04:10:31.616Z,57.10
2019-03-12T04:13:01.656Z,56.20
2019-03-12T04:15:31.669Z,55.90
2019-03-12T04:18:01.657Z,53.90
2019-03-12T04:20:31.554Z,51.90
2019-03-12T04:23:01.511Z,48.70
2019-03-12T04:25:31.560Z,48.70
2019-03-12T04:28:01.600Z,47.50
2019-03-12T04:30:31.628Z,47.10
2019-03-12T04:33:01.657Z,46.90
2019-03-12T04:35:34.208Z,46.70
2019-03-12T04:38:04.244Z,47.10
2019-03-12T04:40:34.207Z,47.50
2019-03-12T04:43:04.221Z,46.80
2019-03-12T04:45:34.240Z,47.00
2019-03-12T04:48:04.282Z,47.30
2019-03-12T04:50:34.260Z,47.20
2019-03-12T04:53:04.209Z,47.10
2019-03-12T04:55:34.117Z,47.50
2019-03-12T04:58:03.955Z,47.40
2019-03-12T05:00:33.977Z,47.40
2019-03-12T05:03:04.020Z,47.50
2019-03-12T05:05:34.963Z,47.70
2019-03-12T05:08:05.007Z,47.70
2019-03-12T05:10:34.985Z,48.10
2019-03-12T05:13:05.254Z,48.20
2019-03-12T05:15:35.207Z,48.60
2019-03-12T05:18:05.142Z,49.30
2019-03-12T05:20:34.971Z,50.90
2019-03-12T05:23:04.859Z,52.10
2019-03-12T05:25:34.907Z,53.70
2019-03-12T05:28:06.821Z,52.20
2019-03-12T05:30:36.520Z,51.50
2019-03-12T05:33:06.342Z,52.60
2019-03-12T05:35:36.252Z,53.20
2019-03-12T05:38:06.360Z,54.40
2019-03-12T05:40:36.188Z,55.60
2019-03-12T05:43:06.096Z,55.70
2019-03-12T05:45:35.983Z,54.80
2019-03-12T05:48:06.018Z,53.50
2019-03-12T05:50:35.968Z,54.10
2019-03-12T05:53:14.211Z,54.20
2019-03-12T05:55:44.256Z,54.10
2019-03-12T05:58:14.156Z,54.60
2019-03-12T06:00:44.023Z,55.10
2019-03-12T06:03:14.011Z,54.70
2019-03-12T06:05:43.886Z,54.50
2019-03-12T06:08:13.934Z,54.40
2019-03-12T06:10:43.977Z,54.20
2019-03-12T06:13:13.932Z,53.80
2019-03-12T06:15:43.780Z,53.60
2019-03-12T06:18:13.915Z,54.00
2019-03-12T06:20:43.947Z,53.60
2019-03-12T06:23:15.262Z,54.50
2019-03-12T06:25:45.396Z,55.20
2019-03-12T06:28:15.426Z,55.00
2019-03-12T06:31:03.178Z,54.70
2019-03-12T06:33:52.821Z,54.80
2019-03-12T06:36:27.218Z,54.60
2019-03-12T06:39:13.774Z,54.60
2019-03-12T06:41:48.204Z,54.20
2019-03-12T06:44:35.793Z,53.10
2019-03-12T06:47:07.466Z,51.70
2019-03-12T06:49:44.915Z,51.00
2019-03-12T06:52:16.458Z,50.40
2019-03-12T06:54:50.869Z,49.90
2019-03-12T06:57:29.049Z,50.10
2019-03-12T06:59:59.968Z,51.60
2019-03-12T07:02:47.605Z,44.80
2019-03-12T07:05:21.184Z,39.40
2019-03-12T07:07:58.289Z,37.30
2019-03-12T07:10:29.109Z,38.30
2019-03-12T07:13:15.837Z,35.10
2019-03-12T07:15:53.339Z,32.90
2019-03-12T07:18:30.623Z,33.40
2019-03-12T07:21:04.798Z,32.40
2019-03-12T07:23:52.464Z,30.50
2019-03-12T07:26:29.890Z,30.00
2019-03-12T07:29:00.751Z,29.70
2019-03-12T07:31:32.163Z,28.40
2019-03-12T07:34:09.377Z,29.10
2019-03-12T07:36:40.997Z,28.20
2019-03-12T07:39:15.675Z,27.20
2019-03-12T07:41:50.028Z,26.80
2019-03-12T07:44:21.560Z,26.70
2019-03-12T07:47:08.256Z,27.70
2019-03-12T07:49:55.812Z,25.40
2019-03-12T07:52:36.335Z,25.70
2019-03-12T07:55:08.070Z,25.70
2019-03-12T07:57:51.700Z,25.20
2019-03-12T08:00:23.373Z,26.80
2019-03-12T08:02:54.967Z,25.90
2019-03-12T08:05:28.251Z,26.00
2019-03-12T08:08:17.542Z,25.00
2019-03-12T08:10:58.916Z,25.20
2019-03-12T08:13:36.653Z,24.40
2019-03-12T08:16:11.108Z,24.90
2019-03-12T08:18:58.896Z,23.40
2019-03-12T08:21:42.446Z,23.60
2019-03-12T08:24:14.011Z,24.50
2019-03-12T08:27:00.757Z,24.80
2019-03-12T08:29:41.087Z,22.10
2019-03-12T08:32:12.553Z,21.60
2019-03-12T08:34:46.819Z,21.30
2019-03-12T08:37:27.192Z,20.90
2019-03-12T08:40:01.393Z,20.90
2019-03-12T08:42:54.113Z,20.50
2019-03-12T08:45:16.599Z,20.60
2019-03-12T08:47:50.975Z,21.00
2019-03-12T08:50:23.514Z,20.90
2019-03-12T08:53:00.914Z,19.50
2019-03-12T08:55:33.531Z,21.10
2019-03-12T08:58:17.087Z,21.70
2019-03-12T09:00:51.326Z,20.40
2019-03-12T09:03:41.051Z,19.40
2019-03-12T09:06:21.649Z,20.20
2019-03-12T09:08:59.168Z,19.70
2019-03-12T09:11:47.138Z,19.50
2019-03-12T09:14:34.097Z,19.60
2019-03-12T09:17:05.601Z,19.00
2019-03-12T09:19:43.513Z,18.00
2019-03-12T09:22:21.067Z,18.30
2019-03-12T09:25:11.461Z,19.30
2019-03-12T09:27:53.814Z,17.50
2019-03-12T09:30:31.030Z,18.80
2019-03-12T09:33:05.260Z,17.70
2019-03-12T09:35:42.543Z,17.70
2019-03-12T09:38:14.165Z,17.50
2019-03-12T09:41:01.820Z,18.50
2019-03-12T09:43:38.957Z,17.00
2019-03-12T09:46:10.617Z,18.30
2019-03-12T09:48:56.928Z,16.70
2019-03-12T09:51:32.420Z,16.50
2019-03-12T09:54:06.790Z,17.30
2019-03-12T09:56:38.357Z,18.30
2019-03-12T09:59:09.895Z,17.70
2019-03-12T10:01:44.113Z,18.20
2019-03-12T10:04:27.683Z,20.00
2019-03-12T10:06:59.317Z,17.70
2019-03-12T10:09:36.783Z,17.80
2019-03-12T10:12:08.403Z,17.90
2019-03-12T10:14:40.006Z,18.20
2019-03-12T10:17:11.649Z,19.50
2019-03-12T10:19:45.805Z,17.80
2019-03-12T10:22:17.412Z,18.00
2019-03-12T10:24:57.807Z,19.50
2019-03-12T10:27:47.393Z,18.60
2019-03-12T10:30:32.028Z,20.40
2019-03-12T10:33:06.217Z,17.50
2019-03-12T10:35:49.727Z,17.70
2019-03-12T10:39:01.391Z,17.20
2019-03-12T10:41:40.392Z,17.10
2019-03-12T10:44:11.967Z,16.70
2019-03-12T10:46:43.565Z,16.30
2019-03-12T10:49:13.768Z,17.70
2019-03-12T10:51:43.658Z,17.10
2019-03-12T10:54:13.571Z,17.00
2019-03-12T10:56:43.480Z,17.00
2019-03-12T10:59:13.502Z,16.00
2019-03-12T11:01:43.449Z,17.30
2019-03-12T11:04:13.472Z,16.90
2019-03-12T11:06:43.370Z,17.20
2019-03-12T11:09:13.296Z,18.50
2019-03-12T11:11:43.327Z,17.70
2019-03-12T11:14:13.290Z,17.70
2019-03-12T11:16:43.289Z,17.80
2019-03-12T11:19:13.250Z,18.80
2019-03-12T11:21:43.201Z,19.10
2019-03-12T11:24:13.183Z,17.50
2019-03-12T11:26:43.132Z,18.90
2019-03-12T11:29:13.040Z,18.20
2019-03-12T11:31:42.861Z,17.50
2019-03-12T11:34:12.899Z,18.70
2019-03-12T11:36:43.991Z,17.60
2019-03-12T11:39:13.836Z,17.30
2019-03-12T11:41:44.001Z,16.90
2019-03-12T11:44:14.143Z,17.00
2019-03-12T11:46:45.929Z,17.90
2019-03-12T11:49:15.953Z,17.40
2019-03-12T11:51:45.951Z,17.30
2019-03-12T11:54:16.007Z,17.80
2019-03-12T11:56:46.038Z,17.80
2019-03-12T11:59:16.106Z,16.90
2019-03-12T12:01:46.143Z,17.80
2019-03-12T12:04:16.132Z,17.80
2019-03-12T12:06:46.084Z,19.80
2019-03-12T12:09:16.107Z,20.20
2019-03-12T12:11:46.224Z,19.80
2019-03-12T12:14:16.195Z,19.90
2019-03-12T12:16:46.265Z,20.40
2019-03-12T12:19:16.213Z,18.70
2019-03-12T12:21:46.200Z,21.20
2019-03-12T12:24:16.262Z,20.20
2019-03-12T12:26:46.268Z,20.10
2019-03-12T12:29:16.114Z,20.30
2019-03-12T12:31:47.493Z,19.80
2019-03-12T12:34:17.748Z,18.20
2019-03-12T12:36:48.755Z,18.40
2019-03-12T12:39:18.742Z,19.10
2019-03-12T12:41:48.704Z,20.70
2019-03-12T12:44:18.610Z,19.10
2019-03-12T12:46:49.398Z,20.20
2019-03-12T12:49:19.486Z,20.00
2019-03-12T12:51:49.375Z,19.40
2019-03-12T12:54:19.406Z,19.40
2019-03-12T12:56:49.382Z,18.70
2019-03-12T12:59:19.337Z,19.60
2019-03-12T13:01:49.311Z,18.60
2019-03-12T13:04:19.273Z,19.30
2019-03-12T13:06:49.129Z,18.30
2019-03-12T13:09:19.024Z,18.40
2019-03-12T13:11:49.070Z,18.20
2019-03-12T13:14:18.972Z,17.60
2019-03-12T13:16:48.948Z,17.90
2019-03-12T13:19:18.918Z,17.70
2019-03-12T13:21:48.832Z,18.20
2019-03-12T13:24:18.799Z,17.80
2019-03-12T13:26:48.814Z,19.30
2019-03-12T13:29:18.693Z,18.00
2019-03-12T13:31:48.608Z,18.50
2019-03-12T13:34:18.584Z,18.60
2019-03-12T13:36:48.630Z,17.10
2019-03-12T13:39:18.598Z,18.00
2019-03-12T13:41:48.584Z,18.40
2019-03-12T13:44:18.730Z,18.60
2019-03-12T13:46:48.619Z,18.20
2019-03-12T13:49:18.451Z,17.90
2019-03-12T13:51:48.709Z,17.80
2019-03-12T13:54:18.879Z,21.00
2019-03-12T13:56:48.794Z,17.50
2019-03-12T13:59:18.777Z,18.60
2019-03-12T14:01:48.720Z,19.80
2019-03-12T14:04:19.829Z,18.70
2019-03-12T14:06:49.729Z,17.70
2019-03-12T14:09:19.707Z,19.50
2019-03-12T14:11:49.660Z,19.40
2019-03-12T14:14:19.603Z,20.70
2019-03-12T14:16:49.599Z,19.50
2019-03-12T14:19:19.621Z,21.50
2019-03-12T14:21:49.620Z,18.30
2019-03-12T14:24:19.528Z,19.20
2019-03-12T14:26:49.434Z,18.90
2019-03-12T14:29:19.451Z,20.10
2019-03-12T14:31:49.420Z,18.10
2019-03-12T14:34:19.307Z,18.30
2019-03-12T14:36:49.286Z,18.50
2019-03-12T14:39:19.334Z,18.60
2019-03-12T14:41:49.309Z,17.30
2019-03-12T14:44:19.403Z,16.90
2019-03-12T14:46:49.420Z,16.60
2019-03-12T14:49:19.368Z,16.30
2019-03-12T14:52:01.680Z,17.00
2019-03-12T14:54:31.519Z,17.00
2019-03-12T14:57:01.439Z,18.40
2019-03-12T14:59:31.293Z,19.20
2019-03-12T15:02:01.257Z,20.30
2019-03-12T15:04:32.334Z,21.10
2019-03-12T15:07:02.293Z,19.30
2019-03-12T15:09:32.270Z,18.50
2019-03-12T15:12:02.306Z,17.70
2019-03-12T15:14:32.337Z,19.40
2019-03-12T15:17:02.241Z,19.90
2019-03-12T15:19:32.221Z,18.90
2019-03-12T15:22:02.247Z,20.70
2019-03-12T15:24:32.151Z,17.60
2019-03-12T15:27:02.196Z,19.90
2019-03-12T15:29:32.198Z,18.00
2019-03-12T15:32:04.555Z,17.90
2019-03-12T15:34:33.757Z,18.90
2019-03-12T15:37:03.741Z,18.40
2019-03-12T15:39:33.929Z,18.80
2019-03-12T15:42:03.920Z,18.80
2019-03-12T15:44:34.000Z,18.40
2019-03-12T15:47:03.915Z,18.70
2019-03-12T15:49:33.794Z,19.40
2019-03-12T15:52:03.737Z,19.60
2019-03-12T15:54:33.585Z,21.00
2019-03-12T15:57:03.495Z,19.60
2019-03-12T15:59:33.547Z,20.20
2019-03-12T16:02:03.609Z,20.70
2019-03-12T16:04:33.643Z,20.30
2019-03-12T16:07:03.610Z,20.00
2019-03-12T16:09:33.664Z,20.00
2019-03-12T16:12:03.482Z,21.40
2019-03-12T16:14:33.387Z,21.00
2019-03-12T16:17:03.278Z,20.80
2019-03-12T16:19:33.236Z,21.00
2019-03-12T16:22:03.147Z,20.00
2019-03-12T16:24:33.205Z,21.50
2019-03-12T16:27:03.549Z,21.60
2019-03-12T16:29:33.571Z,22.40
2019-03-12T16:32:03.550Z,21.80
2019-03-12T16:34:33.528Z,22.90
2019-03-12T16:37:03.420Z,22.40
2019-03-12T16:39:33.305Z,23.00
2019-03-12T16:42:03.368Z,23.20
2019-03-12T16:44:33.284Z,22.60
2019-03-12T16:47:03.325Z,23.80
2019-03-12T16:49:33.149Z,24.20
2019-03-12T16:52:03.069Z,24.40
2019-03-12T16:54:32.959Z,24.90
2019-03-12T16:57:02.888Z,25.80
2019-03-12T16:59:32.728Z,26.50
2019-03-12T17:02:02.689Z,26.60
2019-03-12T17:04:32.667Z,26.90
2019-03-12T17:07:02.541Z,27.30
2019-03-12T17:09:32.468Z,27.90
2019-03-12T17:12:02.438Z,28.30
2019-03-12T17:14:38.870Z,28.60
2019-03-12T17:17:04.152Z,29.00
2019-03-12T17:19:34.208Z,28.90
2019-03-12T17:22:04.180Z,29.00
2019-03-12T17:24:34.222Z,29.40
2019-03-12T17:27:04.238Z,29.90
2019-03-12T17:29:34.309Z,30.40
2019-03-12T17:32:04.347Z,30.80
2019-03-12T17:34:36.167Z,30.20
2019-03-12T17:37:06.042Z,31.10
2019-03-12T17:39:37.237Z,30.90
2019-03-12T17:42:07.225Z,30.80
2019-03-12T17:44:37.101Z,31.00
2019-03-12T17:47:07.080Z,30.50
2019-03-12T17:49:37.032Z,30.20
2019-03-12T17:52:06.950Z,30.90
2019-03-12T17:54:38.002Z,31.10
2019-03-12T17:57:07.985Z,30.80
2019-03-12T17:59:38.017Z,31.20
2019-03-12T18:02:07.988Z,31.00
2019-03-12T18:04:38.097Z,30.80
2019-03-12T18:07:08.023Z,30.40
2019-03-12T18:09:38.002Z,30.80
2019-03-12T18:12:07.873Z,31.40
2019-03-12T18:14:37.786Z,31.30
2019-03-12T18:17:07.686Z,31.70
2019-03-12T18:19:37.707Z,32.00
2019-03-12T18:22:07.640Z,32.70
2019-03-12T18:24:37.592Z,33.80
2019-03-12T18:27:07.648Z,34.60
2019-03-12T18:29:37.742Z,37.30
2019-03-12T18:32:07.720Z,37.40
2019-03-12T18:34:37.624Z,37.30
2019-03-12T18:37:07.653Z,38.40
2019-03-12T18:39:37.638Z,38.40
2019-03-12T18:42:07.626Z,37.60
2019-03-12T18:44:37.657Z,37.30
2019-03-12T18:47:07.786Z,36.90
2019-03-12T18:49:37.758Z,39.30
2019-03-12T18:52:07.780Z,41.10
2019-03-12T18:54:37.788Z,40.50
2019-03-12T18:57:09.198Z,41.50
2019-03-12T18:59:39.243Z,42.00
2019-03-12T19:02:09.202Z,40.50
2019-03-12T19:04:39.106Z,39.60
2019-03-12T19:07:09.085Z,38.50
2019-03-12T19:09:39.053Z,37.50
2019-03-12T19:12:09.038Z,36.80
2019-03-12T19:14:39.097Z,36.70
2019-03-12T19:17:09.100Z,37.10
2019-03-12T19:19:39.175Z,38.60
2019-03-12T19:22:09.107Z,37.80
2019-03-12T19:24:39.087Z,36.80
2019-03-12T19:27:09.070Z,36.30
2019-03-12T19:29:39.110Z,36.30
2019-03-12T19:32:10.793Z,36.50
2019-03-12T19:34:40.831Z,36.40
2019-03-12T19:37:10.754Z,35.90
2019-03-12T19:39:40.640Z,34.60
2019-03-12T19:42:10.607Z,34.20
2019-03-12T19:44:40.627Z,37.50
2019-03-12T19:47:10.534Z,36.60
2019-03-12T19:49:40.523Z,34.90
2019-03-12T19:52:10.398Z,37.70
2019-03-12T19:54:40.609Z,37.10
2019-03-12T19:57:10.649Z,38.50
2019-03-12T19:59:40.791Z,36.00
2019-03-12T20:02:16.330Z,37.80
2019-03-12T20:04:47.458Z,36.50
2019-03-12T20:07:17.201Z,36.30
2019-03-12T20:09:47.947Z,36.00
2019-03-12T20:12:56.137Z,34.40
2019-03-12T20:15:32.324Z,34.80
2019-03-12T20:18:39.006Z,36.80
2019-03-12T20:21:37.970Z,35.80
2019-03-12T20:24:44.163Z,33.50
2019-03-12T20:27:26.373Z,32.60
2019-03-12T20:30:22.286Z,35.40
2019-03-12T20:33:24.590Z,35.50
2019-03-12T20:36:16.115Z,35.40
2019-03-12T20:39:22.840Z,35.90
2019-03-12T20:42:21.879Z,36.10
2019-03-12T20:45:26.852Z,38.50
2019-03-12T20:48:15.179Z,39.70
2019-03-12T20:51:00.522Z,39.60
2019-03-12T20:54:07.213Z,42.90
2019-03-12T20:56:43.194Z,43.90
2019-03-12T20:59:39.004Z,44.40
2019-03-12T21:02:37.886Z,44.80
2019-03-12T21:05:30.869Z,45.10
2019-03-12T21:08:20.720Z,45.50
2019-03-12T21:11:10.761Z,46.70
2019-03-12T21:13:49.989Z,44.80
2019-03-12T21:16:38.444Z,45.50
2019-03-12T21:19:28.509Z,44.60
2019-03-12T21:22:10.220Z,41.80
2019-03-12T21:24:52.031Z,44.00
2019-03-12T21:27:43.397Z,43.70
2019-03-12T21:30:12.465Z,43.60
2019-03-12T21:32:43.800Z,47.00
2019-03-12T21:35:13.832Z,43.10
2019-03-12T21:37:43.927Z,42.00
2019-03-12T21:40:14.036Z,40.20
2019-03-12T21:42:44.149Z,40.60
2019-03-12T21:45:14.192Z,39.10
2019-03-12T21:47:44.326Z,41.40
2019-03-12T21:50:14.425Z,43.50
2019-03-12T21:52:44.531Z,42.20
2019-03-12T21:55:15.185Z,46.30
2019-03-12T21:57:45.277Z,45.00
2019-03-12T22:00:17.408Z,48.40
2019-03-12T22:02:48.968Z,48.80
2019-03-12T22:05:19.042Z,48.00
2019-03-12T22:07:48.925Z,48.20
2019-03-12T22:10:18.889Z,44.00
2019-03-12T22:12:48.777Z,42.20
2019-03-12T22:15:18.750Z,41.00
2019-03-12T22:17:48.721Z,40.90
2019-03-12T22:20:18.634Z,41.60
2019-03-12T22:22:50.235Z,40.90
2019-03-12T22:25:20.202Z,40.00
2019-03-12T22:27:50.102Z,39.40
2019-03-12T22:30:22.407Z,38.50
2019-03-12T22:32:52.383Z,38.60
2019-03-12T22:35:22.378Z,39.40
2019-03-12T22:37:52.354Z,38.80
2019-03-12T22:40:22.331Z,39.30
2019-03-12T22:42:52.226Z,38.80
2019-03-12T22:45:22.120Z,40.90
2019-03-12T22:47:52.090Z,40.70
2019-03-12T22:50:21.930Z,40.60
2019-03-12T22:52:51.935Z,44.30
2019-03-12T22:55:21.912Z,42.90
2019-03-12T22:57:51.851Z,42.90
2019-03-12T23:00:40.326Z,42.80
2019-03-12T23:03:28.383Z,42.60
2019-03-12T23:06:15.467Z,42.50
2019-03-12T23:09:05.210Z,46.00
2019-03-12T23:11:36.719Z,44.20
2019-03-12T23:14:06.866Z,47.10
2019-03-12T23:16:37.084Z,45.80
2019-03-12T23:19:08.160Z,48.30
2019-03-12T23:21:38.327Z,49.40
2019-03-12T23:24:08.337Z,49.90
2019-03-12T23:26:38.480Z,48.70
2019-03-12T23:29:08.511Z,46.50
2019-03-12T23:31:38.562Z,51.60
2019-03-12T23:34:08.455Z,51.90
2019-03-12T23:36:38.492Z,49.20
2019-03-12T23:39:08.530Z,50.10
2019-03-12T23:41:39.666Z,48.60
2019-03-12T23:44:09.727Z,46.50
2019-03-12T23:46:39.617Z,47.40
2019-03-12T23:49:09.444Z,49.10
2019-03-12T23:51:39.383Z,48.60
2019-03-12T23:54:09.353Z,51.70
2019-03-12T23:56:39.347Z,53.90
2019-03-12T23:59:09.317Z,54.70
